Time;durP1;ratioP1;P1;durP2;ratioP2;P2;SDS_P1;SDS_P2;PMS_P1;PMS_P2;Temp;Humidity;BMP_temperature;BMP_pressure;BME280_temperature;BME280_humidity;BME280_pressure;Samples;Min_cycle;Max_cycle;Signal;HPM_P1;HPM_P2
2023/06/01 00:00:25;;;;;;;14.43;6.95;;;19.50;95.00;;;;;;5019985;28;20220;-38
2023/06/01 00:02:54;;;;;;;10.85;5.60;;;19.40;95.40;;;;;;5019744;28;20295;-38
2023/06/01 00:05:22;;;;;;;10.40;6.30;;;19.40;95.30;;;;;;5020517;28;20229;-38
2023/06/01 00:07:49;;;;;;;9.90;6.20;;;19.30;95.50;;;;;;5002691;28;20250;-38
2023/06/01 00:10:16;;;;;;;8.77;5.95;;;19.20;95.50;;;;;;5020485;28;20211;-38
2023/06/01 00:12:48;;;;;;;7.90;6.00;;;19.20;95.30;;;;;;5022173;28;20745;-38
2023/06/01 00:15:18;;;;;;;10.48;6.03;;;19.10;95.40;;;;;;5021925;28;20239;-38
2023/06/01 00:17:51;;;;;;;8.13;5.90;;;19.10;95.20;;;;;;5021525;28;20502;-38
2023/06/01 00:20:20;;;;;;;9.05;6.00;;;19.00;95.40;;;;;;5020938;28;20274;-37
2023/06/01 00:22:55;;;;;;;8.75;5.88;;;19.00;95.20;;;;;;5020488;28;20205;-38
2023/06/01 00:25:26;;;;;;;8.90;6.10;;;19.00;96.00;;;;;;5020641;28;20204;-38
2023/06/01 00:27:54;;;;;;;11.68;5.97;;;18.90;95.60;;;;;;5021417;28;20627;-38
2023/06/01 00:30:23;;;;;;;10.93;6.03;;;18.80;95.40;;;;;;5019497;28;20588;-38
2023/06/01 00:32:53;;;;;;;9.02;6.03;;;18.80;95.70;;;;;;5021645;28;20682;-38
2023/06/01 00:35:22;;;;;;;7.07;5.50;;;18.70;95.90;;;;;;5020323;28;20236;-38
2023/06/01 00:37:52;;;;;;;9.55;6.22;;;18.60;95.80;;;;;;5019677;28;20286;-38
2023/06/01 00:40:24;;;;;;;9.52;6.15;;;18.60;96.00;;;;;;5021865;28;20216;-38
2023/06/01 00:42:52;;;;;;;10.02;6.20;;;18.50;95.60;;;;;;5007946;28;20247;-37
2023/06/01 00:45:21;;;;;;;11.15;5.70;;;18.50;95.70;;;;;;5021726;28;20608;-37
2023/06/01 00:47:53;;;;;;;10.38;6.65;;;18.50;95.70;;;;;;5021107;28;20550;-37
2023/06/01 00:50:21;;;;;;;8.75;5.65;;;18.40;96.20;;;;;;5004381;28;20227;-37
2023/06/01 00:52:53;;;;;;;8.35;5.72;;;18.40;95.90;;;;;;5022016;28;20216;-37
2023/06/01 00:55:21;;;;;;;7.25;6.18;;;18.30;95.60;;;;;;5021711;28;20225;-37
2023/06/01 00:57:50;;;;;;;8.40;6.40;;;18.20;96.40;;;;;;5018190;28;20225;-38
2023/06/01 01:00:22;;;;;;;8.23;5.65;;;18.20;96.50;;;;;;5004940;28;20205;-37
2023/06/01 01:02:52;;;;;;;8.25;5.78;;;18.10;96.20;;;;;;5011985;28;20295;-37
2023/06/01 01:05:26;;;;;;;7.38;5.68;;;18.10;96.10;;;;;;5017353;28;20236;-37
2023/06/01 01:07:53;;;;;;;13.43;6.30;;;18.10;96.20;;;;;;5007113;28;20197;-37
2023/06/01 01:10:32;;;;;;;10.02;6.10;;;18.00;96.40;;;;;;5000352;28;20593;-37
2023/06/01 01:13:17;;;;;;;7.65;5.72;;;18.00;96.30;;;;;;5019236;28;20222;-37
2023/06/01 01:16:03;;;;;;;7.78;5.65;;;18.00;96.10;;;;;;5011844;28;20234;-37
2023/06/01 01:18:35;;;;;;;9.48;6.45;;;17.90;96.70;;;;;;5020850;28;20242;-37
2023/06/01 01:21:21;;;;;;;8.15;5.68;;;17.90;95.90;;;;;;5022731;28;20312;-37
2023/06/01 01:24:21;;;;;;;8.80;5.45;;;17.90;95.90;;;;;;5010121;28;20215;-37
2023/06/01 01:26:51;;;;;;;9.13;6.50;;;17.90;95.90;;;;;;5019528;28;20248;-37
2023/06/01 01:29:22;;;;;;;11.23;5.85;;;17.80;96.50;;;;;;5023299;28;20236;-37
2023/06/01 01:31:52;;;;;;;10.98;6.20;;;17.70;96.00;;;;;;5022245;28;20719;-37
2023/06/01 01:34:20;;;;;;;9.45;6.15;;;17.70;96.00;;;;;;5021408;28;20220;-37
2023/06/01 01:36:48;;;;;;;7.40;5.60;;;17.70;96.50;;;;;;5023459;28;20217;-37
2023/06/01 01:39:17;;;;;;;8.73;5.50;;;17.60;96.30;;;;;;5023675;28;20308;-37
2023/06/01 01:41:44;;;;;;;9.60;6.13;;;17.60;95.80;;;;;;5023334;28;20270;-37
2023/06/01 01:44:17;;;;;;;9.05;5.93;;;17.60;96.00;;;;;;5021942;28;20352;-37
2023/06/01 01:47:04;;;;;;;6.50;5.50;;;17.60;96.10;;;;;;5023578;28;20216;-37
2023/06/01 01:49:40;;;;;;;9.82;6.50;;;17.60;96.40;;;;;;5022297;28;20391;-36
2023/06/01 01:52:26;;;;;;;7.25;5.95;;;17.60;96.20;;;;;;5023273;28;20229;-39
2023/06/01 01:54:55;;;;;;;8.05;5.85;;;17.60;96.30;;;;;;5024689;28;20772;-39
2023/06/01 01:57:28;;;;;;;7.82;5.47;;;17.60;95.90;;;;;;5007615;28;20205;-37
2023/06/01 01:59:56;;;;;;;10.20;5.70;;;17.60;95.80;;;;;;5004635;28;20266;-39
2023/06/01 02:02:26;;;;;;;7.90;6.20;;;17.50;95.80;;;;;;5022816;28;20574;-38
2023/06/01 02:04:56;;;;;;;10.20;6.60;;;17.50;95.80;;;;;;5022832;28;20291;-38
2023/06/01 02:07:23;;;;;;;8.18;6.15;;;17.50;96.10;;;;;;5024760;28;20255;-38
2023/06/01 02:09:53;;;;;;;8.82;6.47;;;17.50;95.80;;;;;;5022809;28;20220;-38
2023/06/01 02:12:22;;;;;;;9.68;6.75;;;17.40;96.20;;;;;;5006602;28;20258;-37
2023/06/01 02:14:52;;;;;;;10.38;5.97;;;17.40;96.30;;;;;;5023528;28;20225;-37
2023/06/01 02:17:21;;;;;;;9.38;6.72;;;17.30;96.00;;;;;;5024369;28;20232;-37
2023/06/01 02:19:51;;;;;;;7.10;6.35;;;17.30;96.10;;;;;;5021937;28;20217;-37
2023/06/01 02:22:19;;;;;;;11.25;6.90;;;17.30;96.20;;;;;;5022159;28;20298;-37
2023/06/01 02:24:48;;;;;;;9.35;7.55;;;17.20;96.80;;;;;;5022619;28;20221;-37
2023/06/01 02:27:16;;;;;;;8.57;6.00;;;17.10;96.80;;;;;;5024178;28;20643;-40
2023/06/01 02:29:43;;;;;;;8.20;6.30;;;17.10;96.50;;;;;;5021927;28;20209;-38
2023/06/01 02:32:10;;;;;;;8.95;7.13;;;17.00;96.60;;;;;;5024062;28;20213;-38
2023/06/01 02:34:42;;;;;;;8.48;6.95;;;17.00;96.30;;;;;;5021217;28;20795;-37
2023/06/01 02:37:09;;;;;;;9.93;7.13;;;17.00;96.40;;;;;;5022058;28;20588;-37
2023/06/01 02:39:36;;;;;;;9.85;7.22;;;16.90;96.40;;;;;;5023409;28;20621;-37
2023/06/01 02:42:04;;;;;;;10.30;7.43;;;16.90;96.40;;;;;;5021816;28;20209;-38
2023/06/01 02:44:31;;;;;;;10.05;7.30;;;16.90;96.60;;;;;;5022801;28;20302;-38
2023/06/01 02:47:00;;;;;;;11.63;8.00;;;16.80;96.80;;;;;;5023746;28;20208;-37
2023/06/01 02:49:32;;;;;;;10.02;7.57;;;16.70;96.70;;;;;;5023199;28;20670;-37
2023/06/01 02:52:05;;;;;;;9.30;7.47;;;16.70;97.00;;;;;;5023662;28;20299;-37
2023/06/01 02:54:34;;;;;;;9.80;7.60;;;16.60;96.50;;;;;;5005997;28;20229;-37
2023/06/01 02:57:02;;;;;;;12.35;7.97;;;16.60;96.90;;;;;;5022104;28;20212;-37
2023/06/01 02:59:29;;;;;;;10.43;7.75;;;16.50;96.80;;;;;;5020861;28;20212;-37
2023/06/01 03:01:58;;;;;;;10.05;7.93;;;16.50;96.70;;;;;;4985902;28;20237;-37
2023/06/01 03:04:28;;;;;;;11.02;8.48;;;16.50;97.10;;;;;;5011080;28;20224;-37
2023/06/01 03:06:58;;;;;;;11.25;8.90;;;16.30;97.30;;;;;;5021960;28;20247;-37
2023/06/01 03:09:28;;;;;;;11.07;8.07;;;16.30;97.70;;;;;;5022200;28;20201;-37
2023/06/01 03:11:58;;;;;;;14.88;8.98;;;16.20;97.30;;;;;;5021443;28;20550;-37
2023/06/01 03:14:25;;;;;;;11.63;8.57;;;16.10;97.90;;;;;;5020817;28;20355;-37
2023/06/01 03:16:54;;;;;;;12.40;8.32;;;16.10;97.30;;;;;;5023640;28;20259;-39
2023/06/01 03:19:22;;;;;;;12.23;8.95;;;16.00;97.30;;;;;;5016153;28;20650;-39
2023/06/01 03:21:51;;;;;;;12.52;9.82;;;16.00;96.90;;;;;;5023102;28;20201;-38
2023/06/01 03:24:19;;;;;;;11.05;8.95;;;16.00;97.60;;;;;;5003234;28;20697;-36
2023/06/01 03:26:48;;;;;;;12.02;8.70;;;16.00;96.80;;;;;;5021876;28;20606;-37
2023/06/01 03:29:18;;;;;;;10.10;8.35;;;16.00;96.90;;;;;;5022504;28;20589;-37
2023/06/01 03:31:45;;;;;;;16.15;10.70;;;16.00;96.70;;;;;;5021869;28;20204;-37
2023/06/01 03:34:15;;;;;;;14.20;10.23;;;16.00;97.00;;;;;;5019875;28;20251;-37
2023/06/01 03:36:47;;;;;;;11.93;9.80;;;16.00;96.80;;;;;;5021322;28;20234;-38
2023/06/01 03:39:16;;;;;;;14.15;9.65;;;15.90;96.80;;;;;;5022112;28;20208;-37
2023/06/01 03:41:51;;;;;;;10.13;9.13;;;15.90;96.70;;;;;;5021284;28;21101;-38
2023/06/01 03:44:18;;;;;;;12.15;9.60;;;15.90;96.80;;;;;;5020970;28;20604;-38
2023/06/01 03:46:45;;;;;;;13.18;10.02;;;15.90;96.80;;;;;;5022203;28;20702;-37
2023/06/01 03:49:12;;;;;;;12.20;9.68;;;15.90;97.00;;;;;;5021881;28;20196;-38
2023/06/01 03:51:40;;;;;;;12.23;9.35;;;15.80;97.10;;;;;;5022501;28;20205;-38
2023/06/01 03:54:13;;;;;;;15.05;10.63;;;15.80;96.70;;;;;;5020980;28;20245;-37
2023/06/01 03:56:42;;;;;;;14.30;10.30;;;15.80;97.40;;;;;;5022135;28;20239;-37
2023/06/01 03:59:12;;;;;;;14.55;9.90;;;15.80;97.20;;;;;;5021130;28;20197;-37
2023/06/01 04:01:42;;;;;;;15.23;10.95;;;15.80;97.00;;;;;;5018146;28;20754;-37
2023/06/01 04:04:12;;;;;;;12.45;9.50;;;15.70;96.90;;;;;;5022492;28;20300;-38
2023/06/01 04:06:44;;;;;;;13.32;10.23;;;15.70;96.60;;;;;;5021754;28;20691;-37
2023/06/01 04:09:14;;;;;;;13.45;10.65;;;15.70;96.80;;;;;;5020506;28;20582;-38
2023/06/01 04:11:44;;;;;;;13.48;10.40;;;15.70;96.70;;;;;;5019539;28;20312;-38
2023/06/01 04:14:12;;;;;;;14.32;11.05;;;15.70;96.60;;;;;;5020548;28;20292;-38
2023/06/01 04:16:41;;;;;;;14.35;11.18;;;15.70;96.50;;;;;;5021118;28;20233;-37
2023/06/01 04:19:08;;;;;;;12.52;10.73;;;15.70;96.70;;;;;;5012147;28;20201;-38
2023/06/01 04:21:38;;;;;;;13.85;11.20;;;15.70;96.70;;;;;;5017967;28;20381;-40
2023/06/01 04:24:05;;;;;;;15.95;11.25;;;15.70;96.70;;;;;;5004576;28;20197;-38
2023/06/01 04:26:35;;;;;;;14.60;11.35;;;15.70;96.70;;;;;;5021788;28;20205;-38
2023/06/01 04:29:08;;;;;;;14.55;12.02;;;15.70;96.70;;;;;;5022180;28;20758;-38
2023/06/01 04:31:43;;;;;;;14.45;11.05;;;15.70;96.90;;;;;;5018128;28;20230;-37
2023/06/01 04:34:12;;;;;;;13.57;11.48;;;15.70;96.90;;;;;;5022361;28;20200;-38
2023/06/01 04:36:46;;;;;;;15.20;11.88;;;15.80;96.80;;;;;;5018577;28;20225;-38
2023/06/01 04:39:18;;;;;;;14.75;11.98;;;15.80;96.90;;;;;;5020994;28;20216;-38
2023/06/01 04:41:48;;;;;;;16.73;12.40;;;15.80;96.90;;;;;;5019714;28;20220;-37
2023/06/01 04:44:21;;;;;;;14.65;11.65;;;15.80;97.00;;;;;;5016577;28;20237;-38
2023/06/01 04:46:51;;;;;;;15.43;11.95;;;15.80;97.00;;;;;;5020910;28;20427;-37
2023/06/01 04:49:25;;;;;;;15.15;11.48;;;15.80;97.10;;;;;;5026393;28;20204;-37
2023/06/01 04:51:53;;;;;;;21.85;14.02;;;15.80;97.00;;;;;;5024994;28;20212;-37
2023/06/01 04:54:22;;;;;;;20.15;13.40;;;15.80;97.50;;;;;;5024679;28;20690;-38
2023/06/01 04:56:54;;;;;;;15.05;12.15;;;15.80;97.40;;;;;;5023823;28;20240;-38
2023/06/01 04:59:24;;;;;;;15.75;13.00;;;15.80;97.20;;;;;;5018774;28;20201;-37
2023/06/01 05:02:00;;;;;;;19.15;13.02;;;15.80;97.10;;;;;;5019145;28;20213;-38
2023/06/01 05:04:35;;;;;;;16.33;12.57;;;15.70;97.40;;;;;;5024902;28;20645;-37
2023/06/01 05:07:05;;;;;;;15.30;12.77;;;15.80;97.00;;;;;;5021230;28;20278;-38
2023/06/01 05:09:35;;;;;;;18.63;13.73;;;15.80;97.00;;;;;;5010304;28;20231;-38
2023/06/01 05:12:02;;;;;;;19.08;13.73;;;15.70;97.10;;;;;;5004747;28;20240;-37
2023/06/01 05:14:31;;;;;;;21.25;13.45;;;15.70;97.30;;;;;;5017410;28;20268;-37
2023/06/01 05:16:59;;;;;;;18.35;14.18;;;15.70;97.20;;;;;;5003035;28;20565;-37
2023/06/01 05:19:26;;;;;;;17.42;13.95;;;15.70;97.20;;;;;;5020435;28;20714;-37
2023/06/01 05:21:53;;;;;;;19.73;15.40;;;15.60;97.20;;;;;;5021919;28;20216;-38
2023/06/01 05:24:21;;;;;;;22.00;16.73;;;15.60;97.30;;;;;;5021621;28;20220;-38
2023/06/01 05:26:50;;;;;;;23.20;17.42;;;15.60;97.50;;;;;;5023108;28;20209;-37
2023/06/01 05:29:17;;;;;;;25.25;18.63;;;15.60;97.90;;;;;;5019274;28;20330;-38
2023/06/01 05:31:48;;;;;;;25.05;19.02;;;15.40;98.00;;;;;;5020487;28;20224;-38
2023/06/01 05:34:18;;;;;;;25.80;18.05;;;15.40;97.90;;;;;;5018998;28;20212;-38
2023/06/01 05:36:48;;;;;;;20.27;17.15;;;15.40;97.40;;;;;;5024208;28;20216;-38
2023/06/01 05:39:16;;;;;;;25.10;17.95;;;15.40;97.40;;;;;;5023768;28;20324;-38
2023/06/01 05:41:45;;;;;;;25.38;18.27;;;15.30;97.70;;;;;;5016435;28;20292;-38
2023/06/01 05:44:15;;;;;;;26.10;18.08;;;15.30;97.80;;;;;;5015077;28;20240;-38
2023/06/01 05:46:43;;;;;;;23.55;18.42;;;15.20;97.70;;;;;;5022816;28;20201;-38
2023/06/01 05:49:12;;;;;;;28.25;20.45;;;15.30;97.40;;;;;;5020264;28;20216;-37
2023/06/01 05:51:40;;;;;;;28.98;20.98;;;15.30;98.00;;;;;;5022301;28;20209;-37
2023/06/01 05:54:10;;;;;;;26.73;19.75;;;15.20;98.20;;;;;;5006891;28;20219;-37
2023/06/01 05:56:37;;;;;;;32.30;21.25;;;15.20;97.60;;;;;;5021157;28;20221;-38
2023/06/01 05:59:04;;;;;;;26.45;20.70;;;15.20;98.60;;;;;;4999698;28;20749;-38
2023/06/01 06:01:35;;;;;;;26.83;20.73;;;15.10;97.90;;;;;;5013018;28;20205;-39
2023/06/01 06:04:06;;;;;;;27.80;20.02;;;15.20;97.80;;;;;;5017466;28;20301;-38
2023/06/01 06:06:38;;;;;;;23.80;17.70;;;15.10;98.00;;;;;;5001646;28;20209;-38
2023/06/01 06:09:05;;;;;;;32.42;19.80;;;15.20;98.00;;;;;;5016968;28;20209;-38
2023/06/01 06:11:33;;;;;;;25.15;19.13;;;15.20;97.80;;;;;;5021352;28;20212;-38
2023/06/01 06:14:02;;;;;;;27.90;19.30;;;15.20;98.10;;;;;;5020660;28;20719;-38
2023/06/01 06:16:34;;;;;;;29.42;20.75;;;15.20;98.00;;;;;;5019314;28;20231;-38
2023/06/01 06:19:09;;;;;;;24.83;19.70;;;15.20;98.30;;;;;;5024207;28;20293;-39
2023/06/01 06:21:40;;;;;;;26.75;19.50;;;15.10;97.90;;;;;;5014461;28;20201;-39
2023/06/01 06:24:12;;;;;;;27.10;19.48;;;15.20;98.00;;;;;;5022581;28;20199;-38
2023/06/01 06:26:39;;;;;;;24.70;19.45;;;15.10;98.10;;;;;;5021442;28;20645;-38
2023/06/01 06:29:10;;;;;;;25.63;18.77;;;15.10;98.20;;;;;;5020284;28;20220;-38
2023/06/01 06:31:38;;;;;;;23.55;18.85;;;15.00;98.30;;;;;;5022414;28;20773;-38
2023/06/01 06:34:07;;;;;;;24.92;18.60;;;15.10;98.00;;;;;;5019971;28;20306;-38
2023/06/01 06:36:35;;;;;;;29.05;19.67;;;15.10;97.80;;;;;;5021234;28;20232;-39
2023/06/01 06:39:05;;;;;;;25.27;19.67;;;15.10;97.90;;;;;;5017792;28;20278;-38
2023/06/01 06:41:32;;;;;;;24.65;19.27;;;15.20;98.00;;;;;;5020189;28;20204;-38
2023/06/01 06:44:02;;;;;;;24.40;17.65;;;15.20;98.40;;;;;;5010851;28;20343;-38
2023/06/01 06:46:29;;;;;;;23.42;18.42;;;15.20;98.00;;;;;;5016103;28;20212;-38
2023/06/01 06:48:57;;;;;;;30.50;17.80;;;15.20;97.90;;;;;;5019704;28;20663;-38
2023/06/01 06:51:26;;;;;;;20.45;15.98;;;15.20;98.50;;;;;;5020520;28;20205;-38
2023/06/01 06:53:56;;;;;;;21.48;15.75;;;15.30;98.00;;;;;;5006044;28;20238;-38
2023/06/01 06:56:23;;;;;;;19.90;15.95;;;15.30;97.90;;;;;;5018867;28;20248;-39
2023/06/01 06:58:54;;;;;;;22.50;15.25;;;15.40;98.00;;;;;;5021557;28;20303;-38
2023/06/01 07:01:37;;;;;;;23.17;16.08;;;15.40;97.80;;;;;;5023318;28;20308;-38
2023/06/01 07:04:08;;;;;;;21.92;15.73;;;15.40;98.10;;;;;;5004893;28;20842;-38
2023/06/01 07:06:37;;;;;;;23.02;16.13;;;15.40;98.00;;;;;;4990144;28;20327;-38
2023/06/01 07:09:05;;;;;;;23.63;16.73;;;15.40;98.20;;;;;;5005494;28;20634;-38
2023/06/01 07:11:35;;;;;;;24.77;17.55;;;15.40;98.00;;;;;;5022150;28;20205;-38
2023/06/01 07:14:02;;;;;;;20.02;15.70;;;15.40;98.40;;;;;;5021001;28;20674;-38
2023/06/01 07:16:30;;;;;;;18.90;15.82;;;15.40;98.10;;;;;;5019595;28;20336;-38
2023/06/01 07:18:57;;;;;;;20.42;15.35;;;15.50;98.10;;;;;;5017041;28;20641;-38
2023/06/01 07:21:27;;;;;;;23.73;16.83;;;15.50;97.90;;;;;;5017973;28;20201;-38
2023/06/01 07:23:59;;;;;;;22.05;15.65;;;15.50;98.00;;;;;;5021922;28;20240;-38
2023/06/01 07:26:30;;;;;;;20.73;15.45;;;15.60;98.00;;;;;;5022995;28;20243;-37
2023/06/01 07:28:59;;;;;;;19.52;15.57;;;15.60;98.20;;;;;;5023868;28;20205;-37
2023/06/01 07:31:38;;;;;;;24.55;16.20;;;15.60;98.10;;;;;;5017576;28;20584;-38
2023/06/01 07:34:06;;;;;;;17.80;14.88;;;15.70;98.40;;;;;;5017124;28;20220;-37
2023/06/01 07:36:36;;;;;;;19.33;14.98;;;15.70;98.40;;;;;;5026682;28;20715;-38
2023/06/01 07:39:11;;;;;;;16.23;12.85;;;15.70;98.20;;;;;;5016404;28;20204;-37
2023/06/01 07:41:39;;;;;;;19.35;14.48;;;15.80;98.00;;;;;;5020893;28;20754;-38
2023/06/01 07:44:07;;;;;;;18.42;14.23;;;15.90;98.20;;;;;;5020839;28;20233;-38
2023/06/01 07:46:39;;;;;;;18.27;13.48;;;16.00;98.10;;;;;;5015962;28;20215;-38
2023/06/01 07:49:07;;;;;;;13.98;12.25;;;16.00;98.20;;;;;;5017714;28;20591;-38
2023/06/01 07:51:39;;;;;;;15.98;12.45;;;16.10;98.10;;;;;;5021156;28;20551;-38
2023/06/01 07:54:10;;;;;;;17.27;13.65;;;16.20;98.30;;;;;;5021934;28;20216;-38
2023/06/01 07:56:39;;;;;;;18.40;13.20;;;16.20;98.30;;;;;;5016786;28;20225;-38
2023/06/01 07:59:06;;;;;;;16.08;12.50;;;16.30;98.30;;;;;;5008041;28;20638;-38
2023/06/01 08:01:38;;;;;;;18.05;12.68;;;16.40;98.20;;;;;;5008367;28;20328;-38
2023/06/01 08:04:08;;;;;;;17.90;12.02;;;16.50;98.20;;;;;;5005503;28;20202;-38
2023/06/01 08:06:38;;;;;;;15.20;12.95;;;16.50;98.40;;;;;;5020687;28;20662;-38
2023/06/01 08:09:05;;;;;;;14.85;10.80;;;16.60;98.40;;;;;;4985005;28;20627;-38
2023/06/01 08:11:33;;;;;;;20.42;13.05;;;16.70;98.40;;;;;;5018999;28;20544;-38
2023/06/01 08:14:00;;;;;;;16.73;12.18;;;16.80;98.60;;;;;;5014715;28;20205;-38
2023/06/01 08:16:30;;;;;;;15.00;11.82;;;16.90;98.50;;;;;;4999585;28;20253;-38
2023/06/01 08:19:03;;;;;;;16.85;12.15;;;17.00;98.50;;;;;;5013777;28;20201;-38
2023/06/01 08:21:30;;;;;;;15.10;12.55;;;17.00;98.60;;;;;;5009216;28;20207;-38
2023/06/01 08:24:02;;;;;;;14.18;11.57;;;17.00;98.60;;;;;;5029122;28;20223;-38
2023/06/01 08:26:31;;;;;;;16.90;11.95;;;17.00;98.50;;;;;;5027777;28;20267;-38
2023/06/01 08:29:00;;;;;;;15.35;11.30;;;17.00;98.60;;;;;;5027534;28;20311;-38
2023/06/01 08:31:30;;;;;;;14.30;12.25;;;17.00;98.40;;;;;;5025933;28;20208;-38
2023/06/01 08:34:00;;;;;;;16.15;12.35;;;17.10;98.50;;;;;;5006433;28;20275;-38
2023/06/01 08:36:32;;;;;;;17.23;12.18;;;17.00;98.40;;;;;;5025408;28;20224;-38
2023/06/01 08:39:19;;;;;;;15.13;11.50;;;17.10;98.50;;;;;;5005125;28;20209;-38
2023/06/01 08:42:02;;;;;;;14.63;11.82;;;17.00;98.30;;;;;;5021411;28;20706;-38
2023/06/01 08:44:38;;;;;;;15.20;11.90;;;17.00;98.30;;;;;;5016590;28;20719;-38
2023/06/01 08:47:11;;;;;;;14.65;11.20;;;17.00;98.40;;;;;;5021574;28;20220;-38
2023/06/01 08:49:42;;;;;;;18.77;11.50;;;16.90;98.20;;;;;;5021656;28;20648;-38
2023/06/01 08:52:17;;;;;;;14.57;11.00;;;16.80;98.20;;;;;;5025807;28;20219;-38
2023/06/01 08:54:49;;;;;;;16.23;10.98;;;16.70;98.20;;;;;;5024360;28;20216;-38
2023/06/01 08:57:17;;;;;;;13.57;10.57;;;16.70;98.10;;;;;;5025709;28;20580;-38
2023/06/01 08:59:45;;;;;;;12.45;10.10;;;16.70;98.20;;;;;;5024178;28;20735;-38
2023/06/01 09:02:15;;;;;;;15.25;10.77;;;16.70;98.10;;;;;;5025403;28;20220;-38
2023/06/01 09:04:44;;;;;;;12.65;10.48;;;16.70;98.20;;;;;;4994986;28;20192;-38
2023/06/01 09:07:14;;;;;;;15.20;11.52;;;16.80;98.10;;;;;;5019228;28;20217;-38
2023/06/01 09:09:45;;;;;;;15.50;11.40;;;16.80;98.40;;;;;;5017854;28;20298;-38
2023/06/01 09:12:15;;;;;;;15.70;11.80;;;16.80;98.30;;;;;;5025209;28;20600;-38
2023/06/01 09:14:46;;;;;;;14.95;9.85;;;16.80;98.10;;;;;;5019136;28;20576;-38
2023/06/01 09:17:24;;;;;;;12.52;9.10;;;16.90;98.10;;;;;;5022196;28;21017;-38
2023/06/01 09:19:56;;;;;;;13.68;10.38;;;17.00;98.10;;;;;;5018874;28;20303;-38
2023/06/01 09:22:24;;;;;;;12.88;8.90;;;17.00;98.00;;;;;;5023505;28;20234;-38
2023/06/01 09:25:03;;;;;;;12.43;8.85;;;17.10;98.00;;;;;;5025516;28;20266;-38
2023/06/01 09:27:47;;;;;;;14.57;10.20;;;17.20;98.10;;;;;;5025617;28;20204;-38
2023/06/01 09:30:17;;;;;;;12.65;9.88;;;17.20;98.30;;;;;;5023364;28;20259;-38
2023/06/01 09:32:50;;;;;;;15.18;10.55;;;17.30;98.10;;;;;;5018080;28;20236;-38
2023/06/01 09:35:42;;;;;;;13.73;10.25;;;17.30;98.10;;;;;;5024109;28;20659;-37
2023/06/01 09:38:23;;;;;;;11.95;9.82;;;17.40;98.10;;;;;;5006110;28;20213;-39
2023/06/01 09:41:04;;;;;;;15.02;10.88;;;17.40;98.10;;;;;;5017683;28;20213;-37
2023/06/01 09:43:36;;;;;;;14.10;9.75;;;17.50;98.20;;;;;;5021410;28;20722;-37
2023/06/01 09:46:07;;;;;;;12.48;10.57;;;17.50;98.10;;;;;;5017968;28;20217;-37
2023/06/01 09:48:37;;;;;;;10.77;9.23;;;17.60;98.10;;;;;;5016703;28;20267;-37
2023/06/01 09:51:19;;;;;;;12.73;10.25;;;17.70;98.10;;;;;;5022881;28;20231;-38
2023/06/01 09:53:46;;;;;;;14.70;10.68;;;17.80;98.20;;;;;;5019751;28;20856;-37
2023/06/01 09:56:15;;;;;;;14.48;10.65;;;17.80;98.10;;;;;;5015771;28;20220;-37
2023/06/01 09:58:43;;;;;;;13.43;10.00;;;17.90;98.10;;;;;;5003710;28;20231;-37
2023/06/01 10:01:12;;;;;;;12.23;9.20;;;17.90;98.10;;;;;;5020457;28;20600;-37
2023/06/01 10:03:42;;;;;;;13.45;9.40;;;18.00;98.20;;;;;;5022297;28;20221;-37
2023/06/01 10:06:15;;;;;;;13.30;10.18;;;18.10;98.20;;;;;;5015253;28;20595;-40
2023/06/01 10:08:43;;;;;;;14.75;10.95;;;18.20;98.20;;;;;;5005564;28;20208;-37
2023/06/01 10:11:10;;;;;;;14.25;10.35;;;18.20;98.00;;;;;;5022120;28;20646;-37
2023/06/01 10:13:42;;;;;;;13.40;10.98;;;18.20;98.10;;;;;;5024362;28;20422;-37
2023/06/01 10:16:12;;;;;;;15.48;10.85;;;18.30;98.10;;;;;;5022270;28;20579;-37
2023/06/01 10:18:41;;;;;;;13.23;10.07;;;18.30;98.00;;;;;;5021019;28;20200;-38
2023/06/01 10:21:08;;;;;;;15.43;10.45;;;18.30;98.00;;;;;;5015431;28;20231;-38
2023/06/01 10:23:40;;;;;;;13.50;10.43;;;18.40;97.90;;;;;;5021386;28;20586;-38
2023/06/01 10:26:12;;;;;;;13.52;9.90;;;18.40;97.80;;;;;;5016245;28;20220;-38
2023/06/01 10:28:45;;;;;;;11.48;9.45;;;18.50;97.80;;;;;;5007595;28;20220;-38
2023/06/01 10:31:37;;;;;;;15.40;11.55;;;18.50;97.80;;;;;;5015790;28;20292;-39
2023/06/01 10:34:08;;;;;;;12.57;9.80;;;18.60;97.50;;;;;;5020106;28;20651;-39
2023/06/01 10:36:51;;;;;;;13.38;10.02;;;18.60;97.80;;;;;;5015724;28;20228;-39
2023/06/01 10:39:29;;;;;;;13.07;10.32;;;18.80;97.90;;;;;;5021282;28;20290;-39
2023/06/01 10:42:18;;;;;;;18.83;10.98;;;18.80;97.80;;;;;;5020659;28;20283;-39
2023/06/01 10:44:47;;;;;;;13.90;11.05;;;18.80;97.60;;;;;;5022294;28;20216;-39
2023/06/01 10:47:20;;;;;;;13.63;10.55;;;18.90;97.70;;;;;;5011597;28;20220;-39
2023/06/01 10:49:50;;;;;;;17.33;10.95;;;19.00;97.70;;;;;;5013452;28;20240;-39
2023/06/01 10:52:33;;;;;;;15.52;10.82;;;19.10;97.30;;;;;;5023556;28;20685;-39
2023/06/01 10:55:06;;;;;;;16.70;11.60;;;19.00;96.70;;;;;;5019616;28;21445;-39
2023/06/01 10:57:34;;;;;;;19.00;11.43;;;19.00;97.00;;;;;;5021502;28;20265;-39
2023/06/01 11:00:16;;;;;;;17.13;11.05;;;19.00;96.90;;;;;;5014428;28;20235;-39
2023/06/01 11:02:54;;;;;;;19.40;11.20;;;19.00;97.10;;;;;;5021952;28;20303;-39
2023/06/01 11:05:48;;;;;;;17.65;11.75;;;19.10;97.10;;;;;;5010410;28;20217;-39
2023/06/01 11:08:23;;;;;;;14.75;10.52;;;19.20;97.20;;;;;;5018521;28;20654;-39
2023/06/01 11:10:53;;;;;;;16.02;10.50;;;19.30;97.50;;;;;;5021560;28;20205;-39
2023/06/01 11:13:27;;;;;;;16.35;11.40;;;19.40;97.00;;;;;;5020674;28;20258;-39
2023/06/01 11:16:07;;;;;;;14.95;10.10;;;19.40;97.00;;;;;;5019611;28;20209;-39
2023/06/01 11:18:46;;;;;;;13.88;10.25;;;19.50;96.70;;;;;;5011501;28;20251;-39
2023/06/01 11:21:23;;;;;;;17.27;11.35;;;19.50;97.00;;;;;;5012437;28;20317;-39
2023/06/01 11:23:54;;;;;;;15.70;11.15;;;19.60;96.80;;;;;;5004779;28;20209;-39
2023/06/01 11:26:27;;;;;;;15.70;11.50;;;19.60;96.80;;;;;;5007181;28;20197;-39
2023/06/01 11:29:25;;;;;;;12.20;9.35;;;19.70;97.10;;;;;;5001219;28;20227;-39
2023/06/01 11:31:56;;;;;;;16.30;11.95;;;19.80;97.20;;;;;;5015497;28;20193;-39
2023/06/01 11:34:34;;;;;;;17.38;12.25;;;19.90;97.20;;;;;;5022782;28;20718;-39
2023/06/01 11:37:03;;;;;;;17.83;11.85;;;19.90;97.10;;;;;;5004932;28;20232;-39
2023/06/01 11:39:31;;;;;;;16.05;12.13;;;20.00;97.30;;;;;;5012098;28;20229;-39
2023/06/01 11:42:08;;;;;;;16.75;11.30;;;20.10;97.40;;;;;;5008252;28;20216;-39
2023/06/01 11:44:38;;;;;;;17.25;12.32;;;20.20;97.50;;;;;;5020171;28;20207;-39
2023/06/01 11:47:09;;;;;;;18.90;12.35;;;20.20;97.40;;;;;;5018698;28;20407;-40
2023/06/01 11:49:44;;;;;;;17.70;10.55;;;20.30;97.40;;;;;;5000850;28;20241;-40
2023/06/01 11:52:12;;;;;;;14.68;11.48;;;20.30;97.50;;;;;;5023470;28;20231;-40
2023/06/01 11:54:41;;;;;;;16.20;12.02;;;20.30;96.80;;;;;;5021444;28;20228;-39
2023/06/01 11:57:09;;;;;;;16.10;13.15;;;20.40;97.20;;;;;;5019624;28;20251;-39
2023/06/01 11:59:47;;;;;;;18.90;12.93;;;20.40;96.80;;;;;;5017650;28;20259;-40
2023/06/01 12:02:27;;;;;;;18.65;12.63;;;20.50;96.20;;;;;;5015768;28;20201;-39
2023/06/01 12:05:13;;;;;;;16.42;12.18;;;20.50;97.10;;;;;;5002957;28;20219;-41
2023/06/01 12:07:47;;;;;;;17.83;12.45;;;20.60;97.00;;;;;;5000386;28;20204;-41
2023/06/01 12:10:20;;;;;;;17.33;12.73;;;20.70;97.10;;;;;;5022428;28;20209;-39
2023/06/01 12:12:50;;;;;;;16.67;11.48;;;20.80;97.00;;;;;;5015664;28;20210;-39
2023/06/01 12:15:18;;;;;;;16.35;12.95;;;20.80;97.10;;;;;;5012271;28;20575;-40
2023/06/01 12:17:55;;;;;;;17.25;12.55;;;20.90;97.00;;;;;;5018360;28;20711;-39
2023/06/01 12:20:31;;;;;;;20.88;13.73;;;20.90;97.10;;;;;;5028756;28;20551;-40
2023/06/01 12:23:03;;;;;;;17.02;12.23;;;21.00;96.70;;;;;;5017624;28;20201;-40
2023/06/01 12:25:32;;;;;;;15.57;12.40;;;21.00;96.70;;;;;;5019333;28;20209;-39
2023/06/01 12:28:00;;;;;;;17.88;12.52;;;21.10;96.50;;;;;;5018713;28;20232;-39
2023/06/01 12:30:31;;;;;;;16.10;11.13;;;21.10;96.50;;;;;;5012182;28;20219;-39
2023/06/01 12:32:58;;;;;;;14.82;10.80;;;21.10;96.70;;;;;;5020161;28;20236;-39
2023/06/01 12:35:26;;;;;;;14.30;10.30;;;21.20;96.40;;;;;;5003608;28;20253;-41
2023/06/01 12:38:12;;;;;;;14.98;11.63;;;21.20;96.80;;;;;;5041619;28;20235;-39
2023/06/01 12:40:39;;;;;;;13.68;9.70;;;21.30;96.80;;;;;;5008150;28;20213;-41
2023/06/01 12:43:19;;;;;;;15.05;11.00;;;21.40;96.90;;;;;;5006252;28;20256;-40
2023/06/01 12:45:49;;;;;;;16.95;11.50;;;21.40;96.00;;;;;;5009175;28;20746;-41
2023/06/01 12:48:33;;;;;;;18.17;12.55;;;21.40;95.00;;;;;;5006399;28;20226;-40
2023/06/01 12:51:03;;;;;;;19.42;12.10;;;21.40;96.10;;;;;;5002473;28;20209;-41
2023/06/01 12:53:36;;;;;;;13.45;11.30;;;21.50;96.50;;;;;;5016101;28;20201;-40